MTPP - Port Au Prince
MTPP 230459Z AUTO 10008KT 8000 ////// 25/23 Q1013 A2992 NOSIG
Observed:
Wind:
visibility:
Flight Rules:
Temperature:
Humidity:
Pressure: